sensor_id;sensor_type;location;lat;lon;timestamp;P1;durP1;ratioP1;P2;durP2;ratioP2
45488;SDS011;31236;55.026;61.042;2022-07-21T00:00:43;4.58;;;2.12;;
45488;SDS011;31236;55.026;61.042;2022-07-21T00:03:14;6.42;;;2.15;;
45488;SDS011;31236;55.026;61.042;2022-07-21T00:05:44;5.40;;;2.22;;
45488;SDS011;31236;55.026;61.042;2022-07-21T00:08:15;4.40;;;1.90;;
45488;SDS011;31236;55.026;61.042;2022-07-21T00:10:45;4.67;;;2.10;;
45488;SDS011;31236;55.026;61.042;2022-07-21T00:13:16;4.92;;;1.98;;
45488;SDS011;31236;55.026;61.042;2022-07-21T00:15:46;4.67;;;2.58;;
45488;SDS011;31236;55.026;61.042;2022-07-21T00:18:18;5.83;;;2.22;;
45488;SDS011;31236;55.026;61.042;2022-07-21T00:20:49;3.62;;;1.92;;
45488;SDS011;31236;55.026;61.042;2022-07-21T00:23:20;6.42;;;2.00;;
45488;SDS011;31236;55.026;61.042;2022-07-21T00:25:51;3.62;;;1.90;;
45488;SDS011;31236;55.026;61.042;2022-07-21T00:28:22;5.50;;;2.20;;
45488;SDS011;31236;55.026;61.042;2022-07-21T00:30:53;6.17;;;2.22;;
45488;SDS011;31236;55.026;61.042;2022-07-21T00:33:23;5.72;;;2.45;;
45488;SDS011;31236;55.026;61.042;2022-07-21T00:35:53;4.60;;;2.45;;
45488;SDS011;31236;55.026;61.042;2022-07-21T00:38:24;5.95;;;2.70;;
45488;SDS011;31236;55.026;61.042;2022-07-21T00:40:54;7.45;;;2.37;;
45488;SDS011;31236;55.026;61.042;2022-07-21T00:43:24;3.47;;;2.00;;
45488;SDS011;31236;55.026;61.042;2022-07-21T00:45:55;4.10;;;2.02;;
45488;SDS011;31236;55.026;61.042;2022-07-21T00:48:26;3.50;;;2.08;;
45488;SDS011;31236;55.026;61.042;2022-07-21T00:50:56;4.30;;;1.80;;
45488;SDS011;31236;55.026;61.042;2022-07-21T00:53:27;7.00;;;2.45;;
45488;SDS011;31236;55.026;61.042;2022-07-21T00:55:58;5.90;;;2.22;;
45488;SDS011;31236;55.026;61.042;2022-07-21T00:58:29;4.15;;;1.70;;
45488;SDS011;31236;55.026;61.042;2022-07-21T01:01:00;4.62;;;2.08;;
45488;SDS011;31236;55.026;61.042;2022-07-21T01:03:31;4.78;;;1.77;;
45488;SDS011;31236;55.026;61.042;2022-07-21T01:06:01;6.87;;;2.22;;
45488;SDS011;31236;55.026;61.042;2022-07-21T01:08:32;6.00;;;2.20;;
45488;SDS011;31236;55.026;61.042;2022-07-21T01:11:02;5.50;;;2.08;;
45488;SDS011;31236;55.026;61.042;2022-07-21T01:13:33;4.62;;;2.47;;
45488;SDS011;31236;55.026;61.042;2022-07-21T01:18:35;4.03;;;2.12;;
45488;SDS011;31236;55.026;61.042;2022-07-21T01:24:15;4.03;;;2.15;;
45488;SDS011;31236;55.026;61.042;2022-07-21T01:26:47;5.85;;;2.58;;
45488;SDS011;31236;55.026;61.042;2022-07-21T01:29:19;8.00;;;2.77;;
45488;SDS011;31236;55.026;61.042;2022-07-21T01:31:49;6.08;;;2.42;;
45488;SDS011;31236;55.026;61.042;2022-07-21T01:34:20;4.60;;;2.33;;
45488;SDS011;31236;55.026;61.042;2022-07-21T01:36:50;4.35;;;2.30;;
45488;SDS011;31236;55.026;61.042;2022-07-21T01:39:21;5.37;;;2.50;;
45488;SDS011;31236;55.026;61.042;2022-07-21T01:42:11;6.67;;;2.20;;
45488;SDS011;31236;55.026;61.042;2022-07-21T01:44:41;4.90;;;2.40;;
45488;SDS011;31236;55.026;61.042;2022-07-21T01:47:11;5.58;;;2.00;;
45488;SDS011;31236;55.026;61.042;2022-07-21T01:49:43;3.85;;;2.20;;
45488;SDS011;31236;55.026;61.042;2022-07-21T01:52:13;9.35;;;2.42;;
45488;SDS011;31236;55.026;61.042;2022-07-21T01:54:44;6.80;;;2.47;;
45488;SDS011;31236;55.026;61.042;2022-07-21T01:57:14;3.98;;;2.20;;
45488;SDS011;31236;55.026;61.042;2022-07-21T01:59:44;9.60;;;2.27;;
45488;SDS011;31236;55.026;61.042;2022-07-21T02:02:15;5.00;;;1.85;;
45488;SDS011;31236;55.026;61.042;2022-07-21T02:05:05;6.05;;;2.35;;
45488;SDS011;31236;55.026;61.042;2022-07-21T02:07:35;4.50;;;1.80;;
45488;SDS011;31236;55.026;61.042;2022-07-21T02:10:06;4.83;;;1.92;;
45488;SDS011;31236;55.026;61.042;2022-07-21T02:12:38;6.10;;;1.80;;
45488;SDS011;31236;55.026;61.042;2022-07-21T02:15:10;8.38;;;2.00;;
45488;SDS011;31236;55.026;61.042;2022-07-21T02:17:41;5.10;;;1.72;;
45488;SDS011;31236;55.026;61.042;2022-07-21T02:20:11;5.28;;;2.15;;
45488;SDS011;31236;55.026;61.042;2022-07-21T02:22:42;4.28;;;1.90;;
45488;SDS011;31236;55.026;61.042;2022-07-21T02:25:14;4.45;;;2.00;;
45488;SDS011;31236;55.026;61.042;2022-07-21T02:27:44;4.60;;;1.50;;
45488;SDS011;31236;55.026;61.042;2022-07-21T02:30:15;4.83;;;1.75;;
45488;SDS011;31236;55.026;61.042;2022-07-21T02:32:45;4.83;;;2.08;;
45488;SDS011;31236;55.026;61.042;2022-07-21T02:35:15;4.47;;;1.60;;
45488;SDS011;31236;55.026;61.042;2022-07-21T02:37:46;5.30;;;2.00;;
45488;SDS011;31236;55.026;61.042;2022-07-21T02:40:16;5.87;;;1.90;;
45488;SDS011;31236;55.026;61.042;2022-07-21T02:42:46;4.45;;;2.00;;
45488;SDS011;31236;55.026;61.042;2022-07-21T02:45:17;7.28;;;2.02;;
45488;SDS011;31236;55.026;61.042;2022-07-21T02:48:18;3.42;;;1.52;;
45488;SDS011;31236;55.026;61.042;2022-07-21T02:50:21;6.03;;;1.75;;
45488;SDS011;31236;55.026;61.042;2022-07-21T02:56:02;2.90;;;1.47;;
45488;SDS011;31236;55.026;61.042;2022-07-21T02:58:33;4.00;;;1.57;;
45488;SDS011;31236;55.026;61.042;2022-07-21T03:01:04;1.75;;;1.32;;
45488;SDS011;31236;55.026;61.042;2022-07-21T03:03:35;3.85;;;1.50;;
45488;SDS011;31236;55.026;61.042;2022-07-21T03:06:06;4.08;;;1.42;;
45488;SDS011;31236;55.026;61.042;2022-07-21T03:08:36;3.87;;;1.35;;
45488;SDS011;31236;55.026;61.042;2022-07-21T03:11:07;3.70;;;1.30;;
45488;SDS011;31236;55.026;61.042;2022-07-21T03:13:37;4.97;;;1.40;;
45488;SDS011;31236;55.026;61.042;2022-07-21T03:16:07;2.02;;;1.27;;
45488;SDS011;31236;55.026;61.042;2022-07-21T03:18:37;2.45;;;1.32;;
45488;SDS011;31236;55.026;61.042;2022-07-21T03:21:07;4.47;;;1.20;;
45488;SDS011;31236;55.026;61.042;2022-07-21T03:23:38;3.42;;;1.20;;
45488;SDS011;31236;55.026;61.042;2022-07-21T03:26:10;3.27;;;1.25;;
45488;SDS011;31236;55.026;61.042;2022-07-21T03:28:41;4.58;;;1.20;;
45488;SDS011;31236;55.026;61.042;2022-07-21T03:31:12;1.60;;;1.17;;
45488;SDS011;31236;55.026;61.042;2022-07-21T03:33:42;3.50;;;1.27;;
45488;SDS011;31236;55.026;61.042;2022-07-21T03:36:13;1.50;;;1.02;;
45488;SDS011;31236;55.026;61.042;2022-07-21T03:38:43;5.47;;;1.40;;
45488;SDS011;31236;55.026;61.042;2022-07-21T03:41:13;2.37;;;1.10;;
45488;SDS011;31236;55.026;61.042;2022-07-21T03:43:43;2.08;;;1.27;;
45488;SDS011;31236;55.026;61.042;2022-07-21T03:46:13;2.45;;;1.30;;
45488;SDS011;31236;55.026;61.042;2022-07-21T03:48:43;1.55;;;1.20;;
45488;SDS011;31236;55.026;61.042;2022-07-21T03:51:14;1.98;;;1.20;;
45488;SDS011;31236;55.026;61.042;2022-07-21T03:53:44;3.10;;;1.25;;
45488;SDS011;31236;55.026;61.042;2022-07-21T03:56:16;2.70;;;1.10;;
45488;SDS011;31236;55.026;61.042;2022-07-21T03:58:46;1.87;;;1.22;;
45488;SDS011;31236;55.026;61.042;2022-07-21T04:01:16;2.75;;;1.30;;
45488;SDS011;31236;55.026;61.042;2022-07-21T04:03:47;3.60;;;1.10;;
45488;SDS011;31236;55.026;61.042;2022-07-21T04:06:17;3.25;;;1.30;;
45488;SDS011;31236;55.026;61.042;2022-07-21T04:08:48;5.08;;;1.50;;
45488;SDS011;31236;55.026;61.042;2022-07-21T04:11:18;3.70;;;1.12;;
45488;SDS011;31236;55.026;61.042;2022-07-21T04:13:49;5.75;;;1.30;;
45488;SDS011;31236;55.026;61.042;2022-07-21T04:16:19;4.28;;;1.32;;
45488;SDS011;31236;55.026;61.042;2022-07-21T04:18:50;5.12;;;1.22;;
45488;SDS011;31236;55.026;61.042;2022-07-21T04:21:20;3.10;;;1.15;;
45488;SDS011;31236;55.026;61.042;2022-07-21T04:23:50;2.17;;;0.98;;
45488;SDS011;31236;55.026;61.042;2022-07-21T04:26:21;4.42;;;1.10;;
45488;SDS011;31236;55.026;61.042;2022-07-21T04:28:53;1.35;;;1.02;;
45488;SDS011;31236;55.026;61.042;2022-07-21T04:31:24;2.95;;;1.00;;
45488;SDS011;31236;55.026;61.042;2022-07-21T04:33:54;1.55;;;1.10;;
45488;SDS011;31236;55.026;61.042;2022-07-21T04:36:25;3.12;;;1.02;;
45488;SDS011;31236;55.026;61.042;2022-07-21T04:38:55;1.10;;;0.80;;
45488;SDS011;31236;55.026;61.042;2022-07-21T04:41:25;4.35;;;1.00;;
45488;SDS011;31236;55.026;61.042;2022-07-21T04:43:55;1.62;;;1.00;;
45488;SDS011;31236;55.026;61.042;2022-07-21T04:46:26;3.30;;;1.00;;
45488;SDS011;31236;55.026;61.042;2022-07-21T04:48:57;2.67;;;1.15;;
45488;SDS011;31236;55.026;61.042;2022-07-21T04:51:27;3.45;;;1.10;;
45488;SDS011;31236;55.026;61.042;2022-07-21T04:53:58;4.05;;;1.07;;
45488;SDS011;31236;55.026;61.042;2022-07-21T04:56:28;3.70;;;1.10;;
45488;SDS011;31236;55.026;61.042;2022-07-21T04:58:59;1.77;;;0.90;;
45488;SDS011;31236;55.026;61.042;2022-07-21T05:01:30;3.10;;;1.12;;
45488;SDS011;31236;55.026;61.042;2022-07-21T05:04:00;6.60;;;1.20;;
45488;SDS011;31236;55.026;61.042;2022-07-21T05:06:31;6.40;;;1.17;;
45488;SDS011;31236;55.026;61.042;2022-07-21T05:09:02;1.57;;;0.98;;
45488;SDS011;31236;55.026;61.042;2022-07-21T05:11:33;1.77;;;1.20;;
45488;SDS011;31236;55.026;61.042;2022-07-21T05:14:03;3.15;;;1.15;;
45488;SDS011;31236;55.026;61.042;2022-07-21T05:16:34;8.98;;;1.27;;
45488;SDS011;31236;55.026;61.042;2022-07-21T05:19:04;3.37;;;1.17;;
45488;SDS011;31236;55.026;61.042;2022-07-21T05:21:34;3.27;;;0.93;;
45488;SDS011;31236;55.026;61.042;2022-07-21T05:24:05;3.95;;;0.95;;
45488;SDS011;31236;55.026;61.042;2022-07-21T05:26:36;1.70;;;1.10;;
45488;SDS011;31236;55.026;61.042;2022-07-21T05:29:06;1.27;;;0.98;;
45488;SDS011;31236;55.026;61.042;2022-07-21T05:31:36;3.80;;;1.20;;
45488;SDS011;31236;55.026;61.042;2022-07-21T05:34:06;4.87;;;0.85;;
45488;SDS011;31236;55.026;61.042;2022-07-21T05:36:37;4.17;;;1.10;;
45488;SDS011;31236;55.026;61.042;2022-07-21T05:39:07;2.47;;;1.00;;
45488;SDS011;31236;55.026;61.042;2022-07-21T05:41:38;2.00;;;0.93;;
45488;SDS011;31236;55.026;61.042;2022-07-21T05:44:08;3.25;;;0.82;;
45488;SDS011;31236;55.026;61.042;2022-07-21T05:46:38;2.75;;;1.00;;
45488;SDS011;31236;55.026;61.042;2022-07-21T05:49:09;3.80;;;0.90;;
45488;SDS011;31236;55.026;61.042;2022-07-21T05:51:39;2.65;;;0.80;;
45488;SDS011;31236;55.026;61.042;2022-07-21T05:54:09;2.50;;;0.55;;
45488;SDS011;31236;55.026;61.042;2022-07-21T05:56:40;2.33;;;1.00;;
45488;SDS011;31236;55.026;61.042;2022-07-21T05:59:10;1.60;;;0.70;;
45488;SDS011;31236;55.026;61.042;2022-07-21T06:01:41;2.47;;;1.00;;
45488;SDS011;31236;55.026;61.042;2022-07-21T06:04:11;4.15;;;1.12;;
45488;SDS011;31236;55.026;61.042;2022-07-21T06:06:41;1.40;;;0.88;;
45488;SDS011;31236;55.026;61.042;2022-07-21T06:09:11;3.58;;;0.80;;
45488;SDS011;31236;55.026;61.042;2022-07-21T06:11:41;6.67;;;1.20;;
45488;SDS011;31236;55.026;61.042;2022-07-21T06:14:12;11.70;;;1.60;;
45488;SDS011;31236;55.026;61.042;2022-07-21T06:16:42;2.22;;;0.85;;
45488;SDS011;31236;55.026;61.042;2022-07-21T06:19:12;2.17;;;0.78;;
45488;SDS011;31236;55.026;61.042;2022-07-21T06:21:42;4.17;;;1.22;;
45488;SDS011;31236;55.026;61.042;2022-07-21T06:24:13;3.55;;;1.10;;
45488;SDS011;31236;55.026;61.042;2022-07-21T06:26:45;3.20;;;0.85;;
45488;SDS011;31236;55.026;61.042;2022-07-21T06:29:15;2.80;;;1.00;;
45488;SDS011;31236;55.026;61.042;2022-07-21T06:31:45;5.67;;;0.93;;
45488;SDS011;31236;55.026;61.042;2022-07-21T06:34:15;5.55;;;0.98;;
45488;SDS011;31236;55.026;61.042;2022-07-21T06:36:46;3.37;;;1.05;;
45488;SDS011;31236;55.026;61.042;2022-07-21T06:39:16;1.17;;;0.88;;
45488;SDS011;31236;55.026;61.042;2022-07-21T06:41:46;1.00;;;0.70;;
45488;SDS011;31236;55.026;61.042;2022-07-21T06:44:17;4.15;;;1.02;;
45488;SDS011;31236;55.026;61.042;2022-07-21T06:46:47;2.55;;;1.00;;
45488;SDS011;31236;55.026;61.042;2022-07-21T06:49:17;2.45;;;0.90;;
45488;SDS011;31236;55.026;61.042;2022-07-21T06:51:47;1.00;;;0.90;;
45488;SDS011;31236;55.026;61.042;2022-07-21T06:54:17;1.35;;;0.95;;
45488;SDS011;31236;55.026;61.042;2022-07-21T06:56:48;3.45;;;0.82;;
45488;SDS011;31236;55.026;61.042;2022-07-21T06:59:18;2.30;;;0.90;;
45488;SDS011;31236;55.026;61.042;2022-07-21T07:01:48;3.83;;;1.00;;
45488;SDS011;31236;55.026;61.042;2022-07-21T07:04:18;4.53;;;0.93;;
45488;SDS011;31236;55.026;61.042;2022-07-21T07:06:49;4.72;;;1.07;;
45488;SDS011;31236;55.026;61.042;2022-07-21T07:09:20;2.90;;;1.00;;
45488;SDS011;31236;55.026;61.042;2022-07-21T07:11:51;3.37;;;1.00;;
45488;SDS011;31236;55.026;61.042;2022-07-21T07:14:23;2.25;;;1.00;;
45488;SDS011;31236;55.026;61.042;2022-07-21T07:16:53;5.28;;;1.00;;
45488;SDS011;31236;55.026;61.042;2022-07-21T07:19:24;3.45;;;1.00;;
45488;SDS011;31236;55.026;61.042;2022-07-21T07:21:55;2.42;;;0.70;;
45488;SDS011;31236;55.026;61.042;2022-07-21T07:24:25;1.60;;;0.90;;
45488;SDS011;31236;55.026;61.042;2022-07-21T07:26:55;3.20;;;1.10;;
45488;SDS011;31236;55.026;61.042;2022-07-21T07:29:25;3.85;;;1.20;;
45488;SDS011;31236;55.026;61.042;2022-07-21T07:34:47;2.83;;;0.90;;
45488;SDS011;31236;55.026;61.042;2022-07-21T07:37:17;2.47;;;1.05;;
45488;SDS011;31236;55.026;61.042;2022-07-21T07:39:48;2.15;;;1.07;;
45488;SDS011;31236;55.026;61.042;2022-07-21T07:42:18;2.77;;;1.00;;
45488;SDS011;31236;55.026;61.042;2022-07-21T07:44:49;1.75;;;1.15;;
45488;SDS011;31236;55.026;61.042;2022-07-21T07:47:19;2.98;;;1.00;;
45488;SDS011;31236;55.026;61.042;2022-07-21T07:49:49;2.80;;;1.00;;
45488;SDS011;31236;55.026;61.042;2022-07-21T07:52:20;4.08;;;1.25;;
45488;SDS011;31236;55.026;61.042;2022-07-21T07:54:51;1.67;;;0.80;;
45488;SDS011;31236;55.026;61.042;2022-07-21T07:57:21;5.47;;;1.10;;
45488;SDS011;31236;55.026;61.042;2022-07-21T07:59:51;1.32;;;0.93;;
45488;SDS011;31236;55.026;61.042;2022-07-21T08:02:21;6.65;;;1.10;;
45488;SDS011;31236;55.026;61.042;2022-07-21T08:04:52;3.45;;;1.37;;
45488;SDS011;31236;55.026;61.042;2022-07-21T08:07:22;7.55;;;1.20;;
45488;SDS011;31236;55.026;61.042;2022-07-21T08:09:52;3.95;;;1.15;;
45488;SDS011;31236;55.026;61.042;2022-07-21T08:12:23;4.12;;;1.30;;
45488;SDS011;31236;55.026;61.042;2022-07-21T08:14:53;6.58;;;1.35;;
45488;SDS011;31236;55.026;61.042;2022-07-21T08:17:24;3.47;;;1.10;;
45488;SDS011;31236;55.026;61.042;2022-07-21T08:19:54;4.97;;;1.12;;
45488;SDS011;31236;55.026;61.042;2022-07-21T08:22:25;1.62;;;1.05;;
45488;SDS011;31236;55.026;61.042;2022-07-21T08:24:55;2.52;;;1.00;;
45488;SDS011;31236;55.026;61.042;2022-07-21T08:27:26;1.98;;;1.30;;
45488;SDS011;31236;55.026;61.042;2022-07-21T08:29:56;3.40;;;1.02;;
45488;SDS011;31236;55.026;61.042;2022-07-21T08:32:26;2.92;;;1.32;;
45488;SDS011;31236;55.026;61.042;2022-07-21T08:34:57;5.10;;;1.60;;
45488;SDS011;31236;55.026;61.042;2022-07-21T08:37:27;3.12;;;1.22;;
45488;SDS011;31236;55.026;61.042;2022-07-21T08:39:57;2.00;;;1.15;;
45488;SDS011;31236;55.026;61.042;2022-07-21T08:42:27;2.80;;;1.02;;
45488;SDS011;31236;55.026;61.042;2022-07-21T08:44:58;2.98;;;1.10;;
45488;SDS011;31236;55.026;61.042;2022-07-21T08:47:30;1.52;;;0.95;;
45488;SDS011;31236;55.026;61.042;2022-07-21T08:50:01;2.08;;;1.10;;
45488;SDS011;31236;55.026;61.042;2022-07-21T08:52:32;3.02;;;1.15;;
45488;SDS011;31236;55.026;61.042;2022-07-21T08:55:02;1.10;;;0.90;;
45488;SDS011;31236;55.026;61.042;2022-07-21T08:57:33;2.30;;;1.20;;
45488;SDS011;31236;55.026;61.042;2022-07-21T09:00:06;3.22;;;1.22;;
45488;SDS011;31236;55.026;61.042;2022-07-21T09:02:38;1.80;;;1.10;;
45488;SDS011;31236;55.026;61.042;2022-07-21T09:05:09;4.08;;;1.40;;
45488;SDS011;31236;55.026;61.042;2022-07-21T09:10:30;3.83;;;1.30;;
45488;SDS011;31236;55.026;61.042;2022-07-21T09:13:02;2.00;;;1.25;;
45488;SDS011;31236;55.026;61.042;2022-07-21T09:15:34;3.33;;;1.30;;
45488;SDS011;31236;55.026;61.042;2022-07-21T09:20:56;4.40;;;1.40;;
45488;SDS011;31236;55.026;61.042;2022-07-21T09:23:27;3.65;;;1.10;;
45488;SDS011;31236;55.026;61.042;2022-07-21T09:25:57;2.92;;;1.20;;
45488;SDS011;31236;55.026;61.042;2022-07-21T09:28:28;1.45;;;1.02;;
45488;SDS011;31236;55.026;61.042;2022-07-21T09:36:21;2.17;;;0.88;;
45488;SDS011;31236;55.026;61.042;2022-07-21T09:38:52;1.30;;;1.07;;
45488;SDS011;31236;55.026;61.042;2022-07-21T09:41:25;1.10;;;0.88;;
45488;SDS011;31236;55.026;61.042;2022-07-21T09:43:56;2.55;;;1.10;;
45488;SDS011;31236;55.026;61.042;2022-07-21T09:46:27;8.15;;;1.32;;
45488;SDS011;31236;55.026;61.042;2022-07-21T09:49:00;2.37;;;0.90;;
45488;SDS011;31236;55.026;61.042;2022-07-21T09:54:21;2.37;;;1.10;;
45488;SDS011;31236;55.026;61.042;2022-07-21T09:56:51;4.25;;;1.10;;
45488;SDS011;31236;55.026;61.042;2022-07-21T09:59:23;2.37;;;1.22;;
45488;SDS011;31236;55.026;61.042;2022-07-21T10:01:54;1.27;;;1.00;;
45488;SDS011;31236;55.026;61.042;2022-07-21T10:04:24;6.53;;;1.07;;
45488;SDS011;31236;55.026;61.042;2022-07-21T10:06:54;1.22;;;0.93;;
45488;SDS011;31236;55.026;61.042;2022-07-21T10:09:25;3.22;;;1.27;;
45488;SDS011;31236;55.026;61.042;2022-07-21T10:11:56;8.93;;;1.98;;
45488;SDS011;31236;55.026;61.042;2022-07-21T10:14:29;5.72;;;1.22;;
45488;SDS011;31236;55.026;61.042;2022-07-21T10:16:59;9.15;;;1.45;;
45488;SDS011;31236;55.026;61.042;2022-07-21T10:19:32;5.03;;;1.07;;
45488;SDS011;31236;55.026;61.042;2022-07-21T10:24:55;1.53;;;1.10;;
45488;SDS011;31236;55.026;61.042;2022-07-21T10:27:26;3.45;;;1.07;;
45488;SDS011;31236;55.026;61.042;2022-07-21T10:41:35;1.77;;;1.00;;
45488;SDS011;31236;55.026;61.042;2022-07-21T10:43:49;5.85;;;1.20;;
45488;SDS011;31236;55.026;61.042;2022-07-21T10:49:10;6.05;;;1.50;;
45488;SDS011;31236;55.026;61.042;2022-07-21T10:51:41;4.58;;;1.20;;
45488;SDS011;31236;55.026;61.042;2022-07-21T11:03:21;2.52;;;0.90;;
45488;SDS011;31236;55.026;61.042;2022-07-21T11:06:13;4.72;;;0.98;;
45488;SDS011;31236;55.026;61.042;2022-07-21T11:14:44;0.70;;;0.60;;
45488;SDS011;31236;55.026;61.042;2022-07-21T11:22:41;7.97;;;1.00;;
45488;SDS011;31236;55.026;61.042;2022-07-21T11:25:13;3.58;;;1.00;;
45488;SDS011;31236;55.026;61.042;2022-07-21T11:27:44;2.08;;;0.90;;
45488;SDS011;31236;55.026;61.042;2022-07-21T11:30:17;3.27;;;1.25;;
45488;SDS011;31236;55.026;61.042;2022-07-21T11:32:46;5.42;;;1.35;;
45488;SDS011;31236;55.026;61.042;2022-07-21T11:35:17;3.62;;;1.30;;
45488;SDS011;31236;55.026;61.042;2022-07-21T11:37:47;4.10;;;1.70;;
45488;SDS011;31236;55.026;61.042;2022-07-21T11:40:18;3.92;;;1.20;;
45488;SDS011;31236;55.026;61.042;2022-07-21T11:42:50;8.58;;;1.52;;
45488;SDS011;31236;55.026;61.042;2022-07-21T11:48:11;5.53;;;1.40;;
45488;SDS011;31236;55.026;61.042;2022-07-21T11:50:41;6.30;;;1.40;;
45488;SDS011;31236;55.026;61.042;2022-07-21T11:53:12;6.45;;;1.57;;
45488;SDS011;31236;55.026;61.042;2022-07-21T11:55:43;5.45;;;1.30;;
45488;SDS011;31236;55.026;61.042;2022-07-21T11:58:13;3.40;;;1.40;;
45488;SDS011;31236;55.026;61.042;2022-07-21T12:00:43;7.92;;;2.40;;
45488;SDS011;31236;55.026;61.042;2022-07-21T12:03:14;4.47;;;1.70;;
45488;SDS011;31236;55.026;61.042;2022-07-21T12:05:45;13.90;;;3.90;;
45488;SDS011;31236;55.026;61.042;2022-07-21T12:08:15;10.53;;;4.53;;
45488;SDS011;31236;55.026;61.042;2022-07-21T12:10:45;5.65;;;1.98;;
45488;SDS011;31236;55.026;61.042;2022-07-21T12:13:15;5.33;;;2.52;;
45488;SDS011;31236;55.026;61.042;2022-07-21T12:15:46;1.87;;;1.07;;
45488;SDS011;31236;55.026;61.042;2022-07-21T12:18:17;3.33;;;1.30;;
45488;SDS011;31236;55.026;61.042;2022-07-21T12:21:00;4.28;;;1.10;;
45488;SDS011;31236;55.026;61.042;2022-07-21T12:23:42;4.25;;;1.35;;
45488;SDS011;31236;55.026;61.042;2022-07-21T12:29:02;2.62;;;1.65;;
45488;SDS011;31236;55.026;61.042;2022-07-21T12:31:33;4.20;;;1.50;;
45488;SDS011;31236;55.026;61.042;2022-07-21T12:36:54;2.50;;;1.20;;
45488;SDS011;31236;55.026;61.042;2022-07-21T12:39:25;1.72;;;1.07;;
45488;SDS011;31236;55.026;61.042;2022-07-21T12:53:54;2.85;;;0.90;;
45488;SDS011;31236;55.026;61.042;2022-07-21T12:59:14;10.35;;;1.20;;
45488;SDS011;31236;55.026;61.042;2022-07-21T13:01:44;17.07;;;1.90;;
45488;SDS011;31236;55.026;61.042;2022-07-21T13:04:15;3.15;;;1.00;;
45488;SDS011;31236;55.026;61.042;2022-07-21T13:06:45;3.15;;;1.10;;
45488;SDS011;31236;55.026;61.042;2022-07-21T13:09:16;6.17;;;1.45;;
45488;SDS011;31236;55.026;61.042;2022-07-21T13:11:46;1.62;;;1.17;;
45488;SDS011;31236;55.026;61.042;2022-07-21T13:14:17;5.62;;;1.27;;
45488;SDS011;31236;55.026;61.042;2022-07-21T13:16:48;4.72;;;1.40;;
45488;SDS011;31236;55.026;61.042;2022-07-21T13:19:18;2.80;;;1.27;;
45488;SDS011;31236;55.026;61.042;2022-07-21T13:21:49;4.62;;;1.37;;
45488;SDS011;31236;55.026;61.042;2022-07-21T13:24:20;2.55;;;1.32;;
45488;SDS011;31236;55.026;61.042;2022-07-21T13:26:50;10.15;;;2.08;;
45488;SDS011;31236;55.026;61.042;2022-07-21T13:29:21;3.52;;;2.10;;
45488;SDS011;31236;55.026;61.042;2022-07-21T13:31:52;5.92;;;2.92;;
45488;SDS011;31236;55.026;61.042;2022-07-21T13:34:22;5.42;;;1.77;;
45488;SDS011;31236;55.026;61.042;2022-07-21T13:36:53;5.70;;;2.08;;
45488;SDS011;31236;55.026;61.042;2022-07-21T13:39:23;2.10;;;1.30;;
45488;SDS011;31236;55.026;61.042;2022-07-21T13:41:55;9.13;;;1.45;;
45488;SDS011;31236;55.026;61.042;2022-07-21T13:44:25;2.85;;;1.10;;
45488;SDS011;31236;55.026;61.042;2022-07-21T13:46:56;4.72;;;1.22;;
45488;SDS011;31236;55.026;61.042;2022-07-21T13:49:26;5.40;;;1.35;;
45488;SDS011;31236;55.026;61.042;2022-07-21T13:51:57;8.13;;;1.70;;
45488;SDS011;31236;55.026;61.042;2022-07-21T13:54:28;10.03;;;1.62;;
45488;SDS011;31236;55.026;61.042;2022-07-21T13:56:58;3.42;;;1.00;;
45488;SDS011;31236;55.026;61.042;2022-07-21T13:59:30;1.77;;;1.37;;
45488;SDS011;31236;55.026;61.042;2022-07-21T14:02:03;2.05;;;1.10;;
45488;SDS011;31236;55.026;61.042;2022-07-21T14:04:33;2.02;;;0.98;;
45488;SDS011;31236;55.026;61.042;2022-07-21T14:07:04;2.35;;;1.00;;
45488;SDS011;31236;55.026;61.042;2022-07-21T14:09:34;2.12;;;1.20;;
45488;SDS011;31236;55.026;61.042;2022-07-21T14:12:05;6.53;;;1.65;;
45488;SDS011;31236;55.026;61.042;2022-07-21T14:14:37;2.35;;;1.02;;
45488;SDS011;31236;55.026;61.042;2022-07-21T14:17:09;5.28;;;1.10;;
45488;SDS011;31236;55.026;61.042;2022-07-21T14:19:39;1.98;;;1.00;;
45488;SDS011;31236;55.026;61.042;2022-07-21T14:22:10;1.98;;;1.10;;
45488;SDS011;31236;55.026;61.042;2022-07-21T14:24:41;6.10;;;1.97;;
45488;SDS011;31236;55.026;61.042;2022-07-21T14:27:31;4.12;;;1.00;;
45488;SDS011;31236;55.026;61.042;2022-07-21T14:30:01;3.40;;;1.12;;
45488;SDS011;31236;55.026;61.042;2022-07-21T14:32:33;5.30;;;1.27;;
45488;SDS011;31236;55.026;61.042;2022-07-21T14:35:03;2.25;;;1.30;;
45488;SDS011;31236;55.026;61.042;2022-07-21T14:37:34;4.15;;;1.10;;
45488;SDS011;31236;55.026;61.042;2022-07-21T14:40:06;5.12;;;1.70;;
45488;SDS011;31236;55.026;61.042;2022-07-21T14:42:38;5.35;;;1.47;;
45488;SDS011;31236;55.026;61.042;2022-07-21T14:45:10;7.17;;;1.85;;
45488;SDS011;31236;55.026;61.042;2022-07-21T14:47:40;7.20;;;1.55;;
45488;SDS011;31236;55.026;61.042;2022-07-21T14:50:10;4.80;;;1.20;;
45488;SDS011;31236;55.026;61.042;2022-07-21T14:52:40;9.35;;;1.40;;
45488;SDS011;31236;55.026;61.042;2022-07-21T14:55:11;4.78;;;1.32;;
45488;SDS011;31236;55.026;61.042;2022-07-21T14:57:41;5.12;;;1.30;;
45488;SDS011;31236;55.026;61.042;2022-07-21T15:00:12;6.60;;;1.45;;
45488;SDS011;31236;55.026;61.042;2022-07-21T15:02:43;10.93;;;2.12;;
45488;SDS011;31236;55.026;61.042;2022-07-21T15:05:14;4.30;;;1.42;;
45488;SDS011;31236;55.026;61.042;2022-07-21T15:07:44;11.18;;;1.70;;
45488;SDS011;31236;55.026;61.042;2022-07-21T15:10:15;7.83;;;2.02;;
45488;SDS011;31236;55.026;61.042;2022-07-21T15:12:45;6.80;;;1.77;;
45488;SDS011;31236;55.026;61.042;2022-07-21T15:15:16;10.03;;;2.60;;
45488;SDS011;31236;55.026;61.042;2022-07-21T15:17:47;5.05;;;1.95;;
45488;SDS011;31236;55.026;61.042;2022-07-21T15:20:17;5.42;;;1.30;;
45488;SDS011;31236;55.026;61.042;2022-07-21T15:22:48;6.28;;;1.50;;
45488;SDS011;31236;55.026;61.042;2022-07-21T15:25:18;3.67;;;1.30;;
45488;SDS011;31236;55.026;61.042;2022-07-21T15:27:48;5.83;;;1.12;;
45488;SDS011;31236;55.026;61.042;2022-07-21T15:30:18;1.82;;;1.30;;
45488;SDS011;31236;55.026;61.042;2022-07-21T15:32:49;8.03;;;1.27;;
45488;SDS011;31236;55.026;61.042;2022-07-21T15:35:19;4.05;;;1.57;;
45488;SDS011;31236;55.026;61.042;2022-07-21T15:37:49;4.08;;;1.90;;
45488;SDS011;31236;55.026;61.042;2022-07-21T15:40:20;5.17;;;1.40;;
45488;SDS011;31236;55.026;61.042;2022-07-21T15:42:50;4.12;;;1.37;;
45488;SDS011;31236;55.026;61.042;2022-07-21T15:45:22;3.95;;;1.85;;
45488;SDS011;31236;55.026;61.042;2022-07-21T15:47:52;2.77;;;1.30;;
45488;SDS011;31236;55.026;61.042;2022-07-21T15:50:22;4.53;;;1.40;;
45488;SDS011;31236;55.026;61.042;2022-07-21T15:52:52;3.58;;;1.42;;
45488;SDS011;31236;55.026;61.042;2022-07-21T15:55:22;4.15;;;1.45;;
45488;SDS011;31236;55.026;61.042;2022-07-21T15:57:53;5.15;;;1.80;;
45488;SDS011;31236;55.026;61.042;2022-07-21T16:00:24;6.10;;;1.40;;
45488;SDS011;31236;55.026;61.042;2022-07-21T16:02:54;7.00;;;1.57;;
45488;SDS011;31236;55.026;61.042;2022-07-21T16:05:25;5.33;;;1.45;;
45488;SDS011;31236;55.026;61.042;2022-07-21T16:07:56;5.35;;;1.60;;
45488;SDS011;31236;55.026;61.042;2022-07-21T16:10:26;6.42;;;1.57;;
45488;SDS011;31236;55.026;61.042;2022-07-21T16:12:57;7.80;;;1.90;;
45488;SDS011;31236;55.026;61.042;2022-07-21T16:15:28;4.60;;;1.72;;
45488;SDS011;31236;55.026;61.042;2022-07-21T16:17:58;5.12;;;1.67;;
45488;SDS011;31236;55.026;61.042;2022-07-21T16:20:29;6.22;;;1.70;;